sensor_id;sensor_type;location;lat;lon;timestamp;P1;durP1;ratioP1;P2;durP2;ratioP2
2562;SDS011;1291;51.420;6.970;2023-05-18T00:01:10;5.18;;;2.78;;
2562;SDS011;1291;51.420;6.970;2023-05-18T00:03:41;7.22;;;2.60;;
2562;SDS011;1291;51.420;6.970;2023-05-18T00:06:06;6.13;;;2.10;;
2562;SDS011;1291;51.420;6.970;2023-05-18T00:08:32;5.80;;;2.42;;
2562;SDS011;1291;51.420;6.970;2023-05-18T00:10:59;8.15;;;2.45;;
2562;SDS011;1291;51.420;6.970;2023-05-18T00:13:25;9.10;;;3.15;;
2562;SDS011;1291;51.420;6.970;2023-05-18T00:15:51;14.70;;;3.08;;
2562;SDS011;1291;51.420;6.970;2023-05-18T00:18:16;7.93;;;3.08;;
2562;SDS011;1291;51.420;6.970;2023-05-18T00:20:42;11.68;;;2.85;;
2562;SDS011;1291;51.420;6.970;2023-05-18T00:23:08;10.50;;;2.65;;
2562;SDS011;1291;51.420;6.970;2023-05-18T00:25:40;8.27;;;2.70;;
2562;SDS011;1291;51.420;6.970;2023-05-18T00:28:05;8.23;;;2.70;;
2562;SDS011;1291;51.420;6.970;2023-05-18T00:30:30;12.68;;;2.88;;
2562;SDS011;1291;51.420;6.970;2023-05-18T00:32:56;6.75;;;2.53;;
2562;SDS011;1291;51.420;6.970;2023-05-18T00:35:21;5.70;;;2.80;;
2562;SDS011;1291;51.420;6.970;2023-05-18T00:37:46;6.63;;;2.50;;
2562;SDS011;1291;51.420;6.970;2023-05-18T00:40:12;7.95;;;2.92;;
2562;SDS011;1291;51.420;6.970;2023-05-18T00:42:37;8.70;;;3.15;;
2562;SDS011;1291;51.420;6.970;2023-05-18T00:45:02;6.97;;;2.63;;
2562;SDS011;1291;51.420;6.970;2023-05-18T00:47:28;7.07;;;3.20;;
2562;SDS011;1291;51.420;6.970;2023-05-18T00:49:53;6.43;;;3.22;;
2562;SDS011;1291;51.420;6.970;2023-05-18T00:52:19;9.90;;;2.58;;
2562;SDS011;1291;51.420;6.970;2023-05-18T00:54:45;5.85;;;2.70;;
2562;SDS011;1291;51.420;6.970;2023-05-18T00:57:11;7.07;;;2.90;;
2562;SDS011;1291;51.420;6.970;2023-05-18T00:59:36;7.25;;;2.70;;
2562;SDS011;1291;51.420;6.970;2023-05-18T01:02:01;7.60;;;2.88;;
2562;SDS011;1291;51.420;6.970;2023-05-18T01:04:28;7.00;;;2.78;;
2562;SDS011;1291;51.420;6.970;2023-05-18T01:06:55;10.40;;;2.88;;
2562;SDS011;1291;51.420;6.970;2023-05-18T01:09:25;6.70;;;2.60;;
2562;SDS011;1291;51.420;6.970;2023-05-18T01:11:54;8.73;;;3.53;;
2562;SDS011;1291;51.420;6.970;2023-05-18T01:14:32;8.13;;;2.95;;
2562;SDS011;1291;51.420;6.970;2023-05-18T01:17:05;5.55;;;3.22;;
2562;SDS011;1291;51.420;6.970;2023-05-18T01:19:55;12.65;;;3.75;;
2562;SDS011;1291;51.420;6.970;2023-05-18T01:22:47;13.55;;;3.30;;
2562;SDS011;1291;51.420;6.970;2023-05-18T01:25:44;14.30;;;4.78;;
2562;SDS011;1291;51.420;6.970;2023-05-18T01:28:16;9.57;;;3.20;;
2562;SDS011;1291;51.420;6.970;2023-05-18T01:30:43;8.68;;;3.50;;
2562;SDS011;1291;51.420;6.970;2023-05-18T01:33:10;8.75;;;3.38;;
2562;SDS011;1291;51.420;6.970;2023-05-18T01:35:39;8.05;;;3.50;;
2562;SDS011;1291;51.420;6.970;2023-05-18T01:38:17;11.38;;;3.15;;
2562;SDS011;1291;51.420;6.970;2023-05-18T01:43:50;7.32;;;3.03;;
2562;SDS011;1291;51.420;6.970;2023-05-18T01:49:34;11.52;;;5.10;;
2562;SDS011;1291;51.420;6.970;2023-05-18T01:52:03;11.65;;;3.67;;
2562;SDS011;1291;51.420;6.970;2023-05-18T01:54:33;12.07;;;3.72;;
2562;SDS011;1291;51.420;6.970;2023-05-18T01:57:01;13.63;;;4.07;;
2562;SDS011;1291;51.420;6.970;2023-05-18T01:59:28;12.98;;;3.60;;
2562;SDS011;1291;51.420;6.970;2023-05-18T02:01:56;7.38;;;3.70;;
2562;SDS011;1291;51.420;6.970;2023-05-18T02:04:24;10.85;;;3.83;;
2562;SDS011;1291;51.420;6.970;2023-05-18T02:06:49;15.77;;;3.42;;
2562;SDS011;1291;51.420;6.970;2023-05-18T02:09:18;7.78;;;3.47;;
2562;SDS011;1291;51.420;6.970;2023-05-18T02:11:44;6.30;;;3.10;;
2562;SDS011;1291;51.420;6.970;2023-05-18T02:14:10;7.75;;;3.60;;
2562;SDS011;1291;51.420;6.970;2023-05-18T02:16:39;9.95;;;4.15;;
2562;SDS011;1291;51.420;6.970;2023-05-18T02:19:04;10.68;;;4.57;;
2562;SDS011;1291;51.420;6.970;2023-05-18T02:21:30;9.50;;;4.18;;
2562;SDS011;1291;51.420;6.970;2023-05-18T02:23:55;8.35;;;3.45;;
2562;SDS011;1291;51.420;6.970;2023-05-18T02:26:20;7.35;;;3.35;;
2562;SDS011;1291;51.420;6.970;2023-05-18T02:28:49;9.15;;;4.22;;
2562;SDS011;1291;51.420;6.970;2023-05-18T02:31:14;7.80;;;4.30;;
2562;SDS011;1291;51.420;6.970;2023-05-18T02:33:39;11.85;;;3.58;;
2562;SDS011;1291;51.420;6.970;2023-05-18T02:36:08;11.85;;;4.32;;
2562;SDS011;1291;51.420;6.970;2023-05-18T02:38:35;12.65;;;4.07;;
2562;SDS011;1291;51.420;6.970;2023-05-18T02:41:01;13.15;;;4.60;;
2562;SDS011;1291;51.420;6.970;2023-05-18T02:43:30;12.82;;;3.75;;
2562;SDS011;1291;51.420;6.970;2023-05-18T02:45:56;11.88;;;4.55;;
2562;SDS011;1291;51.420;6.970;2023-05-18T02:48:21;7.63;;;3.92;;
2562;SDS011;1291;51.420;6.970;2023-05-18T02:50:49;12.70;;;4.30;;
2562;SDS011;1291;51.420;6.970;2023-05-18T02:53:15;10.63;;;4.63;;
2562;SDS011;1291;51.420;6.970;2023-05-18T02:55:40;6.45;;;3.80;;
2562;SDS011;1291;51.420;6.970;2023-05-18T02:58:06;12.07;;;5.03;;
2562;SDS011;1291;51.420;6.970;2023-05-18T03:00:32;12.05;;;4.70;;
2562;SDS011;1291;51.420;6.970;2023-05-18T03:02:57;8.93;;;3.97;;
2562;SDS011;1291;51.420;6.970;2023-05-18T03:05:24;13.43;;;4.50;;
2562;SDS011;1291;51.420;6.970;2023-05-18T03:07:50;13.93;;;4.75;;
2562;SDS011;1291;51.420;6.970;2023-05-18T03:10:16;7.05;;;4.03;;
2562;SDS011;1291;51.420;6.970;2023-05-18T03:12:43;7.40;;;3.65;;
2562;SDS011;1291;51.420;6.970;2023-05-18T03:15:08;10.05;;;4.45;;
2562;SDS011;1291;51.420;6.970;2023-05-18T03:17:35;10.75;;;4.50;;
2562;SDS011;1291;51.420;6.970;2023-05-18T03:20:01;11.73;;;4.47;;
2562;SDS011;1291;51.420;6.970;2023-05-18T03:22:26;11.43;;;4.32;;
2562;SDS011;1291;51.420;6.970;2023-05-18T03:24:53;8.98;;;5.15;;
2562;SDS011;1291;51.420;6.970;2023-05-18T03:27:19;8.57;;;4.30;;
2562;SDS011;1291;51.420;6.970;2023-05-18T03:29:49;12.35;;;4.88;;
2562;SDS011;1291;51.420;6.970;2023-05-18T03:32:14;9.60;;;4.55;;
2562;SDS011;1291;51.420;6.970;2023-05-18T03:34:40;8.13;;;4.50;;
2562;SDS011;1291;51.420;6.970;2023-05-18T03:37:05;7.93;;;4.18;;
2562;SDS011;1291;51.420;6.970;2023-05-18T03:39:31;13.05;;;4.50;;
2562;SDS011;1291;51.420;6.970;2023-05-18T03:41:56;13.07;;;4.80;;
2562;SDS011;1291;51.420;6.970;2023-05-18T03:44:22;11.63;;;4.95;;
2562;SDS011;1291;51.420;6.970;2023-05-18T03:46:48;8.63;;;5.18;;
2562;SDS011;1291;51.420;6.970;2023-05-18T03:49:13;9.38;;;4.70;;
2562;SDS011;1291;51.420;6.970;2023-05-18T03:51:38;12.77;;;5.00;;
2562;SDS011;1291;51.420;6.970;2023-05-18T03:54:03;8.38;;;4.40;;
2562;SDS011;1291;51.420;6.970;2023-05-18T03:56:29;7.78;;;4.30;;
2562;SDS011;1291;51.420;6.970;2023-05-18T03:58:55;10.65;;;5.13;;
2562;SDS011;1291;51.420;6.970;2023-05-18T04:01:22;11.55;;;4.78;;
2562;SDS011;1291;51.420;6.970;2023-05-18T04:03:48;8.68;;;5.05;;
2562;SDS011;1291;51.420;6.970;2023-05-18T04:06:15;10.75;;;4.97;;
2562;SDS011;1291;51.420;6.970;2023-05-18T04:08:41;10.45;;;4.80;;
2562;SDS011;1291;51.420;6.970;2023-05-18T04:11:07;7.80;;;4.80;;
2562;SDS011;1291;51.420;6.970;2023-05-18T04:13:33;15.15;;;5.05;;
2562;SDS011;1291;51.420;6.970;2023-05-18T04:16:02;10.38;;;4.30;;
2562;SDS011;1291;51.420;6.970;2023-05-18T04:18:28;9.25;;;5.07;;
2562;SDS011;1291;51.420;6.970;2023-05-18T04:20:55;10.05;;;4.10;;
2562;SDS011;1291;51.420;6.970;2023-05-18T04:23:20;8.20;;;4.45;;
2562;SDS011;1291;51.420;6.970;2023-05-18T04:25:46;9.73;;;5.15;;
2562;SDS011;1291;51.420;6.970;2023-05-18T04:28:13;11.70;;;5.50;;
2562;SDS011;1291;51.420;6.970;2023-05-18T04:30:39;13.75;;;5.10;;
2562;SDS011;1291;51.420;6.970;2023-05-18T04:33:04;12.80;;;5.05;;
2562;SDS011;1291;51.420;6.970;2023-05-18T04:35:33;10.98;;;5.32;;
2562;SDS011;1291;51.420;6.970;2023-05-18T04:37:59;11.13;;;4.97;;
2562;SDS011;1291;51.420;6.970;2023-05-18T04:40:24;11.65;;;5.30;;
2562;SDS011;1291;51.420;6.970;2023-05-18T04:42:49;8.15;;;4.85;;
2562;SDS011;1291;51.420;6.970;2023-05-18T04:45:18;7.95;;;4.85;;
2562;SDS011;1291;51.420;6.970;2023-05-18T04:47:46;12.35;;;5.28;;
2562;SDS011;1291;51.420;6.970;2023-05-18T04:50:17;11.73;;;5.95;;
2562;SDS011;1291;51.420;6.970;2023-05-18T04:52:43;13.85;;;5.25;;
2562;SDS011;1291;51.420;6.970;2023-05-18T04:55:16;14.88;;;5.47;;
2562;SDS011;1291;51.420;6.970;2023-05-18T04:57:52;9.32;;;5.40;;
2562;SDS011;1291;51.420;6.970;2023-05-18T05:00:20;8.73;;;4.93;;
2562;SDS011;1291;51.420;6.970;2023-05-18T05:02:50;10.75;;;5.57;;
2562;SDS011;1291;51.420;6.970;2023-05-18T05:05:16;14.75;;;5.32;;
2562;SDS011;1291;51.420;6.970;2023-05-18T05:07:42;11.82;;;5.22;;
2562;SDS011;1291;51.420;6.970;2023-05-18T05:10:08;7.75;;;5.13;;
2562;SDS011;1291;51.420;6.970;2023-05-18T05:12:36;10.00;;;5.18;;
2562;SDS011;1291;51.420;6.970;2023-05-18T05:15:02;10.18;;;5.47;;
2562;SDS011;1291;51.420;6.970;2023-05-18T05:17:28;10.10;;;4.97;;
2562;SDS011;1291;51.420;6.970;2023-05-18T05:19:53;12.30;;;6.32;;
2562;SDS011;1291;51.420;6.970;2023-05-18T05:22:18;12.40;;;5.65;;
2562;SDS011;1291;51.420;6.970;2023-05-18T05:24:44;9.60;;;5.55;;
2562;SDS011;1291;51.420;6.970;2023-05-18T05:27:10;12.32;;;5.70;;
2562;SDS011;1291;51.420;6.970;2023-05-18T05:29:35;8.93;;;5.70;;
2562;SDS011;1291;51.420;6.970;2023-05-18T05:32:00;11.10;;;4.90;;
2562;SDS011;1291;51.420;6.970;2023-05-18T05:34:26;19.05;;;5.88;;
2562;SDS011;1291;51.420;6.970;2023-05-18T05:36:51;10.55;;;4.60;;
2562;SDS011;1291;51.420;6.970;2023-05-18T05:39:16;12.23;;;5.20;;
2562;SDS011;1291;51.420;6.970;2023-05-18T05:41:42;9.85;;;5.13;;
2562;SDS011;1291;51.420;6.970;2023-05-18T05:44:11;9.70;;;4.85;;
2562;SDS011;1291;51.420;6.970;2023-05-18T05:46:37;9.68;;;4.70;;
2562;SDS011;1291;51.420;6.970;2023-05-18T05:49:02;9.75;;;5.05;;
2562;SDS011;1291;51.420;6.970;2023-05-18T05:51:28;15.55;;;5.03;;
2562;SDS011;1291;51.420;6.970;2023-05-18T05:53:53;13.27;;;4.85;;
2562;SDS011;1291;51.420;6.970;2023-05-18T05:56:18;8.65;;;4.78;;
2562;SDS011;1291;51.420;6.970;2023-05-18T05:58:43;10.45;;;4.70;;
2562;SDS011;1291;51.420;6.970;2023-05-18T06:01:09;13.45;;;5.60;;
2562;SDS011;1291;51.420;6.970;2023-05-18T06:03:34;13.07;;;5.00;;
2562;SDS011;1291;51.420;6.970;2023-05-18T06:06:00;10.00;;;4.68;;
2562;SDS011;1291;51.420;6.970;2023-05-18T06:08:25;7.78;;;4.40;;
2562;SDS011;1291;51.420;6.970;2023-05-18T06:10:51;12.32;;;5.10;;
2562;SDS011;1291;51.420;6.970;2023-05-18T06:13:16;10.30;;;5.32;;
2562;SDS011;1291;51.420;6.970;2023-05-18T06:15:42;8.15;;;4.25;;
2562;SDS011;1291;51.420;6.970;2023-05-18T06:18:07;8.57;;;4.28;;
2562;SDS011;1291;51.420;6.970;2023-05-18T06:20:32;9.57;;;4.72;;
2562;SDS011;1291;51.420;6.970;2023-05-18T06:22:58;7.95;;;4.20;;
2562;SDS011;1291;51.420;6.970;2023-05-18T06:25:23;10.68;;;4.10;;
2562;SDS011;1291;51.420;6.970;2023-05-18T06:27:48;11.52;;;3.88;;
2562;SDS011;1291;51.420;6.970;2023-05-18T06:30:14;8.63;;;3.85;;
2562;SDS011;1291;51.420;6.970;2023-05-18T06:32:40;9.43;;;4.25;;
2562;SDS011;1291;51.420;6.970;2023-05-18T06:35:05;9.48;;;4.20;;
2562;SDS011;1291;51.420;6.970;2023-05-18T06:37:31;7.40;;;3.67;;
2562;SDS011;1291;51.420;6.970;2023-05-18T06:39:57;12.90;;;4.10;;
2562;SDS011;1291;51.420;6.970;2023-05-18T06:42:24;8.88;;;3.63;;
2562;SDS011;1291;51.420;6.970;2023-05-18T06:44:50;13.05;;;4.30;;
2562;SDS011;1291;51.420;6.970;2023-05-18T06:47:15;11.43;;;4.82;;
2562;SDS011;1291;51.420;6.970;2023-05-18T06:49:41;7.97;;;4.00;;
2562;SDS011;1291;51.420;6.970;2023-05-18T06:52:06;9.25;;;3.60;;
2562;SDS011;1291;51.420;6.970;2023-05-18T06:54:33;6.88;;;3.75;;
2562;SDS011;1291;51.420;6.970;2023-05-18T06:56:59;9.93;;;3.63;;
2562;SDS011;1291;51.420;6.970;2023-05-18T06:59:25;13.50;;;4.10;;
2562;SDS011;1291;51.420;6.970;2023-05-18T07:01:50;7.10;;;3.45;;
2562;SDS011;1291;51.420;6.970;2023-05-18T07:04:15;10.98;;;3.67;;
2562;SDS011;1291;51.420;6.970;2023-05-18T07:06:43;8.30;;;3.35;;
2562;SDS011;1291;51.420;6.970;2023-05-18T07:09:10;5.18;;;3.08;;
2562;SDS011;1291;51.420;6.970;2023-05-18T07:11:35;8.60;;;3.15;;
2562;SDS011;1291;51.420;6.970;2023-05-18T07:14:01;10.43;;;3.88;;
2562;SDS011;1291;51.420;6.970;2023-05-18T07:16:26;11.82;;;3.83;;
2562;SDS011;1291;51.420;6.970;2023-05-18T07:18:52;10.85;;;4.28;;
2562;SDS011;1291;51.420;6.970;2023-05-18T07:21:17;12.10;;;4.22;;
2562;SDS011;1291;51.420;6.970;2023-05-18T07:23:42;14.05;;;3.88;;
2562;SDS011;1291;51.420;6.970;2023-05-18T07:26:08;9.55;;;3.50;;
2562;SDS011;1291;51.420;6.970;2023-05-18T07:28:35;11.20;;;3.67;;
2562;SDS011;1291;51.420;6.970;2023-05-18T07:31:01;9.50;;;3.22;;
2562;SDS011;1291;51.420;6.970;2023-05-18T07:33:27;8.48;;;3.80;;
2562;SDS011;1291;51.420;6.970;2023-05-18T07:35:52;12.38;;;3.38;;
2562;SDS011;1291;51.420;6.970;2023-05-18T07:38:18;9.18;;;3.50;;
2562;SDS011;1291;51.420;6.970;2023-05-18T07:40:43;8.98;;;3.45;;
2562;SDS011;1291;51.420;6.970;2023-05-18T07:43:08;10.68;;;3.42;;
2562;SDS011;1291;51.420;6.970;2023-05-18T07:45:34;12.90;;;3.70;;
2562;SDS011;1291;51.420;6.970;2023-05-18T07:47:59;10.82;;;3.35;;
2562;SDS011;1291;51.420;6.970;2023-05-18T07:50:25;9.82;;;3.38;;
2562;SDS011;1291;51.420;6.970;2023-05-18T07:52:50;11.35;;;5.07;;
2562;SDS011;1291;51.420;6.970;2023-05-18T07:55:16;5.75;;;2.88;;
2562;SDS011;1291;51.420;6.970;2023-05-18T07:57:41;11.27;;;3.75;;
2562;SDS011;1291;51.420;6.970;2023-05-18T08:00:06;10.85;;;3.75;;
2562;SDS011;1291;51.420;6.970;2023-05-18T08:02:33;8.35;;;3.33;;
2562;SDS011;1291;51.420;6.970;2023-05-18T08:04:59;12.30;;;3.55;;
2562;SDS011;1291;51.420;6.970;2023-05-18T08:07:24;9.35;;;3.80;;
2562;SDS011;1291;51.420;6.970;2023-05-18T08:09:50;9.20;;;3.20;;
2562;SDS011;1291;51.420;6.970;2023-05-18T08:12:16;8.40;;;2.75;;
2562;SDS011;1291;51.420;6.970;2023-05-18T08:14:41;11.05;;;3.50;;
2562;SDS011;1291;51.420;6.970;2023-05-18T08:17:06;11.45;;;4.32;;
2562;SDS011;1291;51.420;6.970;2023-05-18T08:19:32;6.93;;;3.30;;
2562;SDS011;1291;51.420;6.970;2023-05-18T08:21:57;7.47;;;2.85;;
2562;SDS011;1291;51.420;6.970;2023-05-18T08:24:22;9.60;;;3.53;;
2562;SDS011;1291;51.420;6.970;2023-05-18T08:26:47;7.78;;;3.47;;
2562;SDS011;1291;51.420;6.970;2023-05-18T08:29:13;14.45;;;3.65;;
2562;SDS011;1291;51.420;6.970;2023-05-18T08:31:38;13.40;;;4.20;;
2562;SDS011;1291;51.420;6.970;2023-05-18T08:34:05;9.35;;;4.30;;
2562;SDS011;1291;51.420;6.970;2023-05-18T08:36:32;6.70;;;3.13;;
2562;SDS011;1291;51.420;6.970;2023-05-18T08:38:59;8.65;;;3.63;;
2562;SDS011;1291;51.420;6.970;2023-05-18T08:41:28;11.75;;;3.47;;
2562;SDS011;1291;51.420;6.970;2023-05-18T08:43:59;10.10;;;3.33;;
2562;SDS011;1291;51.420;6.970;2023-05-18T08:46:45;7.82;;;3.60;;
2562;SDS011;1291;51.420;6.970;2023-05-18T08:49:18;10.82;;;3.83;;
2562;SDS011;1291;51.420;6.970;2023-05-18T08:51:45;10.02;;;3.30;;
2562;SDS011;1291;51.420;6.970;2023-05-18T08:54:18;11.15;;;3.47;;
2562;SDS011;1291;51.420;6.970;2023-05-18T08:56:45;10.07;;;4.07;;
2562;SDS011;1291;51.420;6.970;2023-05-18T08:59:10;10.32;;;3.78;;
2562;SDS011;1291;51.420;6.970;2023-05-18T09:01:40;7.35;;;2.97;;
2562;SDS011;1291;51.420;6.970;2023-05-18T09:04:05;12.68;;;3.63;;
2562;SDS011;1291;51.420;6.970;2023-05-18T09:06:33;7.43;;;3.20;;
2562;SDS011;1291;51.420;6.970;2023-05-18T09:08:59;11.00;;;3.20;;
2562;SDS011;1291;51.420;6.970;2023-05-18T09:11:30;10.40;;;3.95;;
2562;SDS011;1291;51.420;6.970;2023-05-18T09:13:58;7.35;;;3.22;;
2562;SDS011;1291;51.420;6.970;2023-05-18T09:16:23;9.55;;;3.92;;
2562;SDS011;1291;51.420;6.970;2023-05-18T09:18:49;11.43;;;3.83;;
2562;SDS011;1291;51.420;6.970;2023-05-18T09:21:14;11.32;;;3.38;;
2562;SDS011;1291;51.420;6.970;2023-05-18T09:23:40;9.50;;;3.45;;
2562;SDS011;1291;51.420;6.970;2023-05-18T09:26:08;10.23;;;3.53;;
2562;SDS011;1291;51.420;6.970;2023-05-18T09:28:35;9.98;;;3.20;;
2562;SDS011;1291;51.420;6.970;2023-05-18T09:31:23;13.52;;;4.18;;
2562;SDS011;1291;51.420;6.970;2023-05-18T09:33:48;12.52;;;3.67;;
2562;SDS011;1291;51.420;6.970;2023-05-18T09:36:15;8.02;;;3.33;;
2562;SDS011;1291;51.420;6.970;2023-05-18T09:38:41;9.68;;;3.63;;
2562;SDS011;1291;51.420;6.970;2023-05-18T09:41:10;8.70;;;3.50;;
2562;SDS011;1291;51.420;6.970;2023-05-18T09:43:37;9.98;;;3.38;;
2562;SDS011;1291;51.420;6.970;2023-05-18T09:46:06;12.98;;;4.10;;
2562;SDS011;1291;51.420;6.970;2023-05-18T09:48:34;9.60;;;3.45;;
2562;SDS011;1291;51.420;6.970;2023-05-18T09:51:01;10.10;;;3.65;;
2562;SDS011;1291;51.420;6.970;2023-05-18T09:53:26;9.48;;;3.90;;
2562;SDS011;1291;51.420;6.970;2023-05-18T09:55:52;9.13;;;3.45;;
2562;SDS011;1291;51.420;6.970;2023-05-18T09:58:17;8.98;;;3.40;;
2562;SDS011;1291;51.420;6.970;2023-05-18T10:00:44;6.47;;;3.67;;
2562;SDS011;1291;51.420;6.970;2023-05-18T10:03:22;9.10;;;3.75;;
2562;SDS011;1291;51.420;6.970;2023-05-18T10:05:49;7.72;;;3.92;;
2562;SDS011;1291;51.420;6.970;2023-05-18T10:08:16;10.68;;;4.28;;
2562;SDS011;1291;51.420;6.970;2023-05-18T10:10:43;12.00;;;4.47;;
2562;SDS011;1291;51.420;6.970;2023-05-18T10:13:13;10.45;;;4.57;;
2562;SDS011;1291;51.420;6.970;2023-05-18T10:15:48;10.57;;;3.60;;
2562;SDS011;1291;51.420;6.970;2023-05-18T10:18:19;11.70;;;4.45;;
2562;SDS011;1291;51.420;6.970;2023-05-18T10:20:47;8.32;;;4.50;;
2562;SDS011;1291;51.420;6.970;2023-05-18T10:23:13;10.43;;;4.28;;
2562;SDS011;1291;51.420;6.970;2023-05-18T10:25:39;8.88;;;4.35;;
2562;SDS011;1291;51.420;6.970;2023-05-18T10:28:09;9.02;;;4.03;;
2562;SDS011;1291;51.420;6.970;2023-05-18T10:30:35;15.93;;;4.93;;
2562;SDS011;1291;51.420;6.970;2023-05-18T10:33:04;7.22;;;3.45;;
2562;SDS011;1291;51.420;6.970;2023-05-18T10:35:30;8.52;;;3.72;;
2562;SDS011;1291;51.420;6.970;2023-05-18T10:37:57;10.77;;;3.95;;
2562;SDS011;1291;51.420;6.970;2023-05-18T10:40:23;10.05;;;3.80;;
2562;SDS011;1291;51.420;6.970;2023-05-18T10:42:52;11.93;;;4.22;;
2562;SDS011;1291;51.420;6.970;2023-05-18T10:45:21;7.18;;;3.95;;
2562;SDS011;1291;51.420;6.970;2023-05-18T10:47:46;7.18;;;4.18;;
2562;SDS011;1291;51.420;6.970;2023-05-18T10:50:12;9.05;;;4.38;;
2562;SDS011;1291;51.420;6.970;2023-05-18T10:52:39;9.15;;;3.88;;
2562;SDS011;1291;51.420;6.970;2023-05-18T10:55:06;7.55;;;3.80;;
2562;SDS011;1291;51.420;6.970;2023-05-18T10:57:34;13.50;;;5.00;;
2562;SDS011;1291;51.420;6.970;2023-05-18T11:00:04;10.05;;;4.40;;
2562;SDS011;1291;51.420;6.970;2023-05-18T11:02:31;10.43;;;4.03;;
2562;SDS011;1291;51.420;6.970;2023-05-18T11:04:57;8.90;;;4.15;;
2562;SDS011;1291;51.420;6.970;2023-05-18T11:07:23;9.38;;;4.40;;
2562;SDS011;1291;51.420;6.970;2023-05-18T11:09:52;9.13;;;4.13;;
2562;SDS011;1291;51.420;6.970;2023-05-18T11:12:17;7.65;;;4.20;;
2562;SDS011;1291;51.420;6.970;2023-05-18T11:14:47;6.32;;;3.97;;
2562;SDS011;1291;51.420;6.970;2023-05-18T11:17:21;10.63;;;4.38;;
2562;SDS011;1291;51.420;6.970;2023-05-18T11:27:52;9.23;;;4.78;;
2562;SDS011;1291;51.420;6.970;2023-05-18T11:30:30;10.90;;;3.80;;
2562;SDS011;1291;51.420;6.970;2023-05-18T11:33:14;8.73;;;4.78;;
2562;SDS011;1291;51.420;6.970;2023-05-18T11:49:16;8.52;;;4.10;;
2562;SDS011;1291;51.420;6.970;2023-05-18T11:51:53;11.40;;;4.20;;
2562;SDS011;1291;51.420;6.970;2023-05-18T11:54:47;7.85;;;3.97;;
2562;SDS011;1291;51.420;6.970;2023-05-18T11:57:18;7.53;;;4.22;;
2562;SDS011;1291;51.420;6.970;2023-05-18T11:59:47;8.25;;;4.10;;
2562;SDS011;1291;51.420;6.970;2023-05-18T12:02:19;6.50;;;3.90;;
2562;SDS011;1291;51.420;6.970;2023-05-18T12:04:48;11.60;;;4.47;;
2562;SDS011;1291;51.420;6.970;2023-05-18T12:07:17;10.32;;;3.60;;
2562;SDS011;1291;51.420;6.970;2023-05-18T12:09:46;10.30;;;3.92;;
2562;SDS011;1291;51.420;6.970;2023-05-18T12:12:13;10.52;;;3.45;;
2562;SDS011;1291;51.420;6.970;2023-05-18T12:14:41;11.18;;;4.95;;
2562;SDS011;1291;51.420;6.970;2023-05-18T12:17:09;10.30;;;4.30;;
2562;SDS011;1291;51.420;6.970;2023-05-18T12:19:46;11.88;;;4.47;;
2562;SDS011;1291;51.420;6.970;2023-05-18T12:22:13;6.90;;;4.15;;
2562;SDS011;1291;51.420;6.970;2023-05-18T12:24:40;8.77;;;4.13;;
2562;SDS011;1291;51.420;6.970;2023-05-18T12:27:07;5.90;;;3.13;;
2562;SDS011;1291;51.420;6.970;2023-05-18T12:29:36;8.38;;;3.50;;
2562;SDS011;1291;51.420;6.970;2023-05-18T12:32:09;9.95;;;3.88;;
2562;SDS011;1291;51.420;6.970;2023-05-18T12:34:36;9.45;;;3.70;;
2562;SDS011;1291;51.420;6.970;2023-05-18T12:37:03;11.43;;;3.45;;
2562;SDS011;1291;51.420;6.970;2023-05-18T12:39:29;5.53;;;3.38;;
2562;SDS011;1291;51.420;6.970;2023-05-18T12:42:06;7.65;;;3.55;;
2562;SDS011;1291;51.420;6.970;2023-05-18T12:44:33;7.20;;;4.20;;
2562;SDS011;1291;51.420;6.970;2023-05-18T12:46:58;11.18;;;4.20;;
2562;SDS011;1291;51.420;6.970;2023-05-18T12:49:24;8.77;;;3.88;;
2562;SDS011;1291;51.420;6.970;2023-05-18T12:51:53;11.02;;;3.95;;
2562;SDS011;1291;51.420;6.970;2023-05-18T12:54:26;7.40;;;4.03;;
2562;SDS011;1291;51.420;6.970;2023-05-18T12:56:54;7.40;;;4.45;;
2562;SDS011;1291;51.420;6.970;2023-05-18T12:59:25;6.47;;;3.92;;
2562;SDS011;1291;51.420;6.970;2023-05-18T13:01:54;7.65;;;3.58;;
2562;SDS011;1291;51.420;6.970;2023-05-18T13:04:21;9.05;;;3.33;;
2562;SDS011;1291;51.420;6.970;2023-05-18T13:06:46;9.40;;;4.05;;
2562;SDS011;1291;51.420;6.970;2023-05-18T13:09:12;7.70;;;3.95;;
2562;SDS011;1291;51.420;6.970;2023-05-18T13:11:39;9.35;;;4.03;;
2562;SDS011;1291;51.420;6.970;2023-05-18T13:14:05;12.38;;;4.22;;
2562;SDS011;1291;51.420;6.970;2023-05-18T13:16:33;8.50;;;3.72;;
2562;SDS011;1291;51.420;6.970;2023-05-18T13:19:02;10.60;;;3.88;;
2562;SDS011;1291;51.420;6.970;2023-05-18T13:21:29;9.65;;;4.07;;
2562;SDS011;1291;51.420;6.970;2023-05-18T13:23:55;10.40;;;3.95;;
2562;SDS011;1291;51.420;6.970;2023-05-18T13:26:20;8.35;;;3.80;;
2562;SDS011;1291;51.420;6.970;2023-05-18T13:28:48;6.90;;;3.67;;
2562;SDS011;1291;51.420;6.970;2023-05-18T13:31:15;12.13;;;3.72;;
2562;SDS011;1291;51.420;6.970;2023-05-18T13:33:40;8.18;;;3.75;;
2562;SDS011;1291;51.420;6.970;2023-05-18T13:36:06;7.97;;;3.35;;
2562;SDS011;1291;51.420;6.970;2023-05-18T13:38:31;8.10;;;3.40;;
2562;SDS011;1291;51.420;6.970;2023-05-18T13:40:59;9.45;;;3.83;;
2562;SDS011;1291;51.420;6.970;2023-05-18T13:43:25;9.75;;;3.50;;
2562;SDS011;1291;51.420;6.970;2023-05-18T13:45:50;8.88;;;3.63;;
2562;SDS011;1291;51.420;6.970;2023-05-18T13:48:16;8.18;;;3.35;;
2562;SDS011;1291;51.420;6.970;2023-05-18T13:50:44;7.82;;;3.58;;
2562;SDS011;1291;51.420;6.970;2023-05-18T13:53:13;10.48;;;3.75;;
2562;SDS011;1291;51.420;6.970;2023-05-18T13:55:38;11.13;;;3.55;;
2562;SDS011;1291;51.420;6.970;2023-05-18T13:58:04;7.55;;;3.72;;
2562;SDS011;1291;51.420;6.970;2023-05-18T14:00:30;8.82;;;3.42;;
2562;SDS011;1291;51.420;6.970;2023-05-18T14:02:57;8.82;;;3.40;;
2562;SDS011;1291;51.420;6.970;2023-05-18T14:05:25;9.48;;;3.55;;
2562;SDS011;1291;51.420;6.970;2023-05-18T14:07:53;10.25;;;3.38;;
2562;SDS011;1291;51.420;6.970;2023-05-18T14:10:20;6.88;;;2.97;;
2562;SDS011;1291;51.420;6.970;2023-05-18T14:12:46;8.23;;;3.55;;
2562;SDS011;1291;51.420;6.970;2023-05-18T14:15:17;9.43;;;3.38;;
2562;SDS011;1291;51.420;6.970;2023-05-18T14:17:43;8.55;;;3.28;;
2562;SDS011;1291;51.420;6.970;2023-05-18T14:20:09;7.15;;;3.45;;
2562;SDS011;1291;51.420;6.970;2023-05-18T14:22:35;12.10;;;3.25;;
2562;SDS011;1291;51.420;6.970;2023-05-18T14:25:01;9.25;;;4.00;;
2562;SDS011;1291;51.420;6.970;2023-05-18T14:27:26;4.85;;;2.70;;
2562;SDS011;1291;51.420;6.970;2023-05-18T14:29:52;10.60;;;2.88;;
2562;SDS011;1291;51.420;6.970;2023-05-18T14:32:20;11.30;;;3.38;;
2562;SDS011;1291;51.420;6.970;2023-05-18T14:34:49;10.38;;;3.40;;
2562;SDS011;1291;51.420;6.970;2023-05-18T14:37:16;8.35;;;3.42;;
2562;SDS011;1291;51.420;6.970;2023-05-18T14:39:42;12.98;;;3.85;;
2562;SDS011;1291;51.420;6.970;2023-05-18T14:42:07;7.32;;;3.40;;
2562;SDS011;1291;51.420;6.970;2023-05-18T14:44:32;8.52;;;2.85;;
2562;SDS011;1291;51.420;6.970;2023-05-18T14:46:58;9.93;;;3.22;;
2562;SDS011;1291;51.420;6.970;2023-05-18T14:49:23;11.25;;;3.53;;
2562;SDS011;1291;51.420;6.970;2023-05-18T14:51:48;9.20;;;3.55;;
2562;SDS011;1291;51.420;6.970;2023-05-18T14:54:14;11.93;;;3.67;;
2562;SDS011;1291;51.420;6.970;2023-05-18T14:56:42;9.77;;;3.05;;
2562;SDS011;1291;51.420;6.970;2023-05-18T14:59:10;9.65;;;3.83;;
2562;SDS011;1291;51.420;6.970;2023-05-18T15:01:38;8.20;;;3.28;;
2562;SDS011;1291;51.420;6.970;2023-05-18T15:04:03;13.18;;;3.72;;
2562;SDS011;1291;51.420;6.970;2023-05-18T15:06:29;8.68;;;3.25;;
2562;SDS011;1291;51.420;6.970;2023-05-18T15:08:58;9.68;;;3.50;;
2562;SDS011;1291;51.420;6.970;2023-05-18T15:11:26;11.80;;;3.70;;
2562;SDS011;1291;51.420;6.970;2023-05-18T15:13:51;9.65;;;3.10;;
2562;SDS011;1291;51.420;6.970;2023-05-18T15:16:16;9.07;;;3.55;;
2562;SDS011;1291;51.420;6.970;2023-05-18T15:18:49;8.45;;;3.72;;
2562;SDS011;1291;51.420;6.970;2023-05-18T15:21:14;7.60;;;3.25;;
2562;SDS011;1291;51.420;6.970;2023-05-18T15:23:40;6.78;;;3.20;;
2562;SDS011;1291;51.420;6.970;2023-05-18T15:26:05;8.60;;;3.30;;
2562;SDS011;1291;51.420;6.970;2023-05-18T15:28:30;7.05;;;3.03;;
2562;SDS011;1291;51.420;6.970;2023-05-18T15:30:56;9.07;;;2.83;;
2562;SDS011;1291;51.420;6.970;2023-05-18T15:33:21;6.28;;;2.83;;
2562;SDS011;1291;51.420;6.970;2023-05-18T15:35:46;7.97;;;3.55;;
2562;SDS011;1291;51.420;6.970;2023-05-18T15:38:11;11.57;;;3.80;;